Time,TemperatureF,DewpointF,PressureIn,WindDirection,WindDirectionDegrees,WindSpeedMPH,WindSpeedGustMPH,Humidity,HourlyPrecipIn,Conditions,Clouds,dailyrainin,SoftwareType,DateUTC
2013-05-05 00:01:00,70.0,69.1,29.82,SW,225,0.0,2.0,97,0.00,,---,0.00,VWS V14.01,2013-05-05 04:01:00,
2013-05-05 00:02:00,70.0,69.1,29.82,SW,225,4.0,4.0,97,0.00,,---,0.00,VWS V14.01,2013-05-05 04:02:00,
2013-05-05 00:05:00,70.0,69.1,29.82,SW,225,1.0,2.0,97,0.00,,---,0.00,VWS V14.01,2013-05-05 04:05:00,
2013-05-05 00:10:00,71.0,69.8,29.82,SW,225,2.0,2.0,96,0.00,,---,0.00,VWS V14.01,2013-05-05 04:10:00,
2013-05-05 00:12:00,70.0,68.8,29.82,SW,225,0.0,0.0,96,0.00,,---,0.00,VWS V14.01,2013-05-05 04:12:00,
2013-05-05 00:17:00,70.0,68.8,29.82,SW,225,0.0,0.0,96,0.00,,---,0.00,VWS V14.01,2013-05-05 04:17:00,
2013-05-05 00:18:00,70.0,68.8,29.82,SW,225,0.0,0.0,96,0.00,,---,0.00,VWS V14.01,2013-05-05 04:18:00,
2013-05-05 00:23:00,70.0,68.8,29.82,SW,225,0.0,0.0,96,0.00,,---,0.00,VWS V14.01,2013-05-05 04:23:00,
2013-05-05 00:28:00,70.0,69.1,29.82,SW,225,2.0,4.0,97,0.00,,---,0.00,VWS V14.01,2013-05-05 04:28:00,
2013-05-05 00:33:00,69.0,67.8,29.82,SSW,202,0.0,0.0,96,0.00,,---,0.00,VWS V14.01,2013-05-05 04:33:00,
2013-05-05 00:38:00,69.0,67.8,29.82,SSW,202,0.0,0.0,96,0.00,,---,0.00,VWS V14.01,2013-05-05 04:38:00,
2013-05-05 00:43:00,69.0,67.8,29.82,WSW,247,0.0,0.0,96,0.00,,---,0.00,VWS V14.01,2013-05-05 04:43:00,
2013-05-05 00:48:00,69.0,67.8,29.82,SW,225,0.0,0.0,96,0.00,,---,0.00,VWS V14.01,2013-05-05 04:48:00,
2013-05-05 00:53:00,69.0,67.8,29.81,SSW,202,0.0,0.0,96,0.00,,---,0.00,VWS V14.01,2013-05-05 04:53:00,
2013-05-05 00:58:00,69.0,67.8,29.81,SSW,202,0.0,0.0,96,0.00,,---,0.00,VWS V14.01,2013-05-05 04:58:00,
2013-05-05 01:03:00,69.0,67.8,29.81,SSW,202,0.0,0.0,96,0.00,,---,0.00,VWS V14.01,2013-05-05 05:03:00,
2013-05-05 01:08:00,68.0,67.1,29.81,SW,225,2.0,4.0,97,0.00,,---,0.00,VWS V14.01,2013-05-05 05:08:00,
2013-05-05 01:13:00,68.0,67.1,29.81,SW,225,1.0,3.0,97,0.00,,---,0.00,VWS V14.01,2013-05-05 05:13:00,
2013-05-05 01:18:00,69.0,68.1,29.81,West,270,0.0,3.0,97,0.00,,---,0.00,VWS V14.01,2013-05-05 05:18:00,
2013-05-05 01:23:00,69.0,68.1,29.80,SW,225,3.0,4.0,97,0.00,,---,0.00,VWS V14.01,2013-05-05 05:23:00,
2013-05-05 01:28:00,69.0,68.1,29.80,SSW,202,0.0,1.0,97,0.00,,---,0.00,VWS V14.01,2013-05-05 05:28:00,
2013-05-05 01:33:00,68.0,67.1,29.80,SW,225,0.0,1.0,97,0.00,,---,0.00,VWS V14.01,2013-05-05 05:33:00,
2013-05-05 01:38:00,68.0,67.1,29.80,SW,225,0.0,4.0,97,0.00,,---,0.00,VWS V14.01,2013-05-05 05:38:00,
2013-05-05 01:43:00,68.0,67.1,29.80,West,270,0.0,2.0,97,0.00,,---,0.00,VWS V14.01,2013-05-05 05:43:00,
2013-05-05 01:48:00,68.0,67.4,29.80,WSW,247,1.0,6.0,98,0.00,,---,0.00,VWS V14.01,2013-05-05 05:48:00,
2013-05-05 01:53:00,68.0,67.4,29.81,WSW,247,0.0,1.0,98,0.00,,---,0.00,VWS V14.01,2013-05-05 05:53:00,
2013-05-05 01:58:00,68.0,67.4,29.81,WSW,247,0.0,0.0,98,0.00,,---,0.00,VWS V14.01,2013-05-05 05:58:00,
2013-05-05 02:03:00,68.0,67.1,29.81,WSW,247,0.0,0.0,97,0.00,,---,0.00,VWS V14.01,2013-05-05 06:03:00,
2013-05-05 02:08:00,68.0,67.1,29.81,WSW,247,0.0,0.0,97,0.00,,---,0.00,VWS V14.01,2013-05-05 06:08:00,
2013-05-05 02:13:00,67.0,66.1,29.81,WSW,247,0.0,0.0,97,0.00,,---,0.00,VWS V14.01,2013-05-05 06:13:00,
2013-05-05 02:18:00,67.0,66.1,29.81,WSW,247,0.0,0.0,97,0.00,,---,0.00,VWS V14.01,2013-05-05 06:18:00,
2013-05-05 02:23:00,67.0,66.4,29.81,WSW,247,0.0,0.0,98,0.00,,---,0.00,VWS V14.01,2013-05-05 06:23:00,
2013-05-05 02:28:00,66.0,65.4,29.81,WSW,247,0.0,0.0,98,0.00,,---,0.00,VWS V14.01,2013-05-05 06:28:00,
2013-05-05 02:33:00,66.0,65.4,29.80,WSW,247,0.0,0.0,98,0.00,,---,0.00,VWS V14.01,2013-05-05 06:33:00,
2013-05-05 02:38:00,66.0,65.4,29.80,WSW,247,0.0,0.0,98,0.00,,---,0.00,VWS V14.01,2013-05-05 06:38:00,
2013-05-05 02:43:00,66.0,65.4,29.81,WSW,247,0.0,0.0,98,0.00,,---,0.00,VWS V14.01,2013-05-05 06:43:00,
2013-05-05 02:48:00,65.0,64.4,29.81,WSW,247,0.0,0.0,98,0.00,,---,0.00,VWS V14.01,2013-05-05 06:48:00,
2013-05-05 02:53:00,65.0,64.7,29.81,WSW,247,0.0,0.0,99,0.00,,---,0.00,VWS V14.01,2013-05-05 06:53:00,
2013-05-05 02:58:00,65.0,64.7,29.81,WSW,247,0.0,0.0,99,0.00,,---,0.00,VWS V14.01,2013-05-05 06:58:00,
2013-05-05 03:03:00,65.0,65.0,29.81,WSW,247,0.0,0.0,100,0.00,,---,0.00,VWS V14.01,2013-05-05 07:03:00,
2013-05-05 03:08:00,64.0,64.0,29.81,WSW,247,0.0,0.0,100,0.00,,---,0.00,VWS V14.01,2013-05-05 07:08:00,
2013-05-05 03:13:00,64.0,64.0,29.80,WSW,247,0.0,0.0,100,0.00,,---,0.00,VWS V14.01,2013-05-05 07:13:00,
2013-05-05 03:18:00,64.0,64.0,29.80,WSW,247,0.0,0.0,100,0.00,,---,0.00,VWS V14.01,2013-05-05 07:18:00,
2013-05-05 03:23:00,64.0,64.0,29.81,WSW,247,0.0,0.0,100,0.00,,---,0.00,VWS V14.01,2013-05-05 07:23:00,
2013-05-05 03:28:00,64.0,64.0,29.81,WSW,247,0.0,0.0,100,0.00,,---,0.00,VWS V14.01,2013-05-05 07:28:00,
2013-05-05 03:33:00,64.0,64.0,29.80,WSW,247,0.0,0.0,100,0.00,,---,0.00,VWS V14.01,2013-05-05 07:33:00,
2013-05-05 03:38:00,64.0,64.0,29.80,WSW,247,0.0,0.0,100,0.00,,---,0.00,VWS V14.01,2013-05-05 07:38:00,
2013-05-05 03:43:00,64.0,64.0,29.80,WSW,247,0.0,0.0,100,0.00,,---,0.00,VWS V14.01,2013-05-05 07:43:00,
2013-05-05 03:48:00,64.0,64.0,29.80,WSW,247,0.0,0.0,100,0.00,,---,0.00,VWS V14.01,2013-05-05 07:48:00,
2013-05-05 03:53:00,64.0,64.0,29.80,WSW,247,0.0,0.0,100,0.00,,---,0.00,VWS V14.01,2013-05-05 07:53:00,
2013-05-05 03:58:00,64.0,64.0,29.80,WSW,247,4.0,4.0,100,0.00,,---,0.00,VWS V14.01,2013-05-05 07:58:00,
2013-05-05 04:03:00,64.0,64.0,29.81,WSW,247,0.0,0.0,100,0.00,,---,0.00,VWS V14.01,2013-05-05 08:03:00,
2013-05-05 04:08:00,65.0,65.0,29.81,WSW,247,2.0,5.0,100,0.00,,---,0.00,VWS V14.01,2013-05-05 08:08:00,
2013-05-05 04:13:00,66.0,66.0,29.80,SW,225,0.0,1.0,100,0.00,,---,0.00,VWS V14.01,2013-05-05 08:13:00,
2013-05-05 04:18:00,66.0,66.0,29.80,WSW,247,1.0,3.0,100,0.00,,---,0.00,VWS V14.01,2013-05-05 08:18:00,
2013-05-05 04:23:00,66.0,66.0,29.80,WSW,247,0.0,4.0,100,0.00,,---,0.00,VWS V14.01,2013-05-05 08:23:00,
2013-05-05 04:28:00,66.0,66.0,29.80,WSW,247,0.0,5.0,100,0.00,,---,0.00,VWS V14.01,2013-05-05 08:28:00,
2013-05-05 04:33:00,66.0,66.0,29.80,NW,315,4.0,4.0,100,0.00,,---,0.00,VWS V14.01,2013-05-05 08:33:00,
2013-05-05 04:38:00,66.0,66.0,29.80,SW,225,1.0,2.0,100,0.00,,---,0.00,VWS V14.01,2013-05-05 08:38:00,
2013-05-05 04:43:00,66.0,66.0,29.80,South,180,0.0,4.0,100,0.00,,---,0.00,VWS V14.01,2013-05-05 08:43:00,
2013-05-05 04:48:00,66.0,66.0,29.80,SW,225,0.0,3.0,100,0.00,,---,0.00,VWS V14.01,2013-05-05 08:48:00,
2013-05-05 04:53:00,66.0,66.0,29.80,SW,225,0.0,0.0,100,0.00,,---,0.00,VWS V14.01,2013-05-05 08:53:00,
2013-05-05 04:58:00,66.0,66.0,29.80,WSW,247,0.0,3.0,100,0.00,,---,0.00,VWS V14.01,2013-05-05 08:58:00,
2013-05-05 05:03:00,66.0,66.0,29.79,West,270,2.0,4.0,100,0.00,,---,0.00,VWS V14.01,2013-05-05 09:03:00,
2013-05-05 05:08:00,66.0,66.0,29.79,SW,225,0.0,1.0,100,0.00,,---,0.00,VWS V14.01,2013-05-05 09:08:00,
2013-05-05 05:13:00,66.0,66.0,29.80,WSW,247,0.0,2.0,100,0.00,,---,0.00,VWS V14.01,2013-05-05 09:13:00,
2013-05-05 05:18:00,66.0,66.0,29.80,WSW,247,0.0,0.0,100,0.00,,---,0.00,VWS V14.01,2013-05-05 09:18:00,
2013-05-05 05:23:00,66.0,66.0,29.81,WNW,292,0.0,7.0,100,0.00,,---,0.00,VWS V14.01,2013-05-05 09:23:00,
2013-05-05 05:28:00,66.0,66.0,29.81,WSW,247,0.0,2.0,100,0.00,,---,0.00,VWS V14.01,2013-05-05 09:28:00,
2013-05-05 05:34:00,66.0,66.0,29.81,WSW,247,0.0,2.0,100,0.00,,---,0.00,VWS V14.01,2013-05-05 09:34:00,
2013-05-05 05:39:00,66.0,66.0,29.81,SW,225,0.0,6.0,100,0.00,,---,0.00,VWS V14.01,2013-05-05 09:39:00,
2013-05-05 05:44:00,66.0,66.0,29.81,SW,225,1.0,2.0,100,0.00,,---,0.00,VWS V14.01,2013-05-05 09:44:00,
2013-05-05 05:49:00,66.0,66.0,29.81,SW,225,0.0,1.0,100,0.00,,---,0.00,VWS V14.01,2013-05-05 09:49:00,
2013-05-05 05:54:00,66.0,66.0,29.82,SW,225,0.0,0.0,100,0.00,,---,0.00,VWS V14.01,2013-05-05 09:54:00,
2013-05-05 05:59:00,66.0,66.0,29.82,SW,225,0.0,4.0,100,0.00,,---,0.00,VWS V14.01,2013-05-05 09:59:00,
2013-05-05 06:04:00,66.0,66.0,29.82,WSW,247,0.0,3.0,100,0.00,,---,0.00,VWS V14.01,2013-05-05 10:04:00,
2013-05-05 06:09:00,66.0,66.0,29.82,SW,225,2.0,4.0,100,0.00,,---,0.00,VWS V14.01,2013-05-05 10:09:00,
2013-05-05 06:14:00,66.0,66.0,29.83,West,270,1.0,3.0,100,0.00,,---,0.00,VWS V14.01,2013-05-05 10:14:00,
2013-05-05 06:19:00,66.0,66.0,29.83,West,270,0.0,0.0,100,0.00,,---,0.00,VWS V14.01,2013-05-05 10:19:00,
2013-05-05 06:24:00,66.0,66.0,29.83,WSW,247,0.0,0.0,100,0.00,,---,0.00,VWS V14.01,2013-05-05 10:24:00,
2013-05-05 06:29:00,66.0,66.0,29.83,WSW,247,0.0,0.0,100,0.00,,---,0.00,VWS V14.01,2013-05-05 10:29:00,
2013-05-05 06:34:00,66.0,66.0,29.84,WSW,247,0.0,2.0,100,0.00,,---,0.00,VWS V14.01,2013-05-05 10:34:00,
2013-05-05 06:39:00,66.0,66.0,29.84,SW,225,0.0,0.0,100,0.00,,---,0.00,VWS V14.01,2013-05-05 10:39:00,
2013-05-05 06:44:00,66.0,66.0,29.85,SSW,202,0.0,0.0,100,0.00,,---,0.00,VWS V14.01,2013-05-05 10:44:00,
2013-05-05 06:49:00,66.0,66.0,29.85,SSW,202,0.0,1.0,100,0.00,,---,0.00,VWS V14.01,2013-05-05 10:49:00,
2013-05-05 06:54:00,66.0,66.0,29.85,WSW,247,0.0,1.0,100,0.00,,---,0.00,VWS V14.01,2013-05-05 10:54:00,
2013-05-05 06:59:00,66.0,66.0,29.85,WSW,247,1.0,1.0,100,0.00,,---,0.00,VWS V14.01,2013-05-05 10:59:00,
2013-05-05 07:04:00,66.0,66.0,29.86,WNW,292,0.0,1.0,100,0.00,,---,0.00,VWS V14.01,2013-05-05 11:04:00,
2013-05-05 07:09:00,66.0,66.0,29.86,WNW,292,1.0,4.0,100,0.00,,---,0.00,VWS V14.01,2013-05-05 11:09:00,
2013-05-05 07:14:00,66.0,66.0,29.87,West,270,4.0,4.0,100,0.00,,---,0.00,VWS V14.01,2013-05-05 11:14:00,
2013-05-05 07:19:00,66.0,66.0,29.87,East,90,1.0,3.0,100,0.00,,---,0.00,VWS V14.01,2013-05-05 11:19:00,
2013-05-05 07:24:00,66.0,66.0,29.88,East,90,0.0,2.0,100,0.00,,---,0.00,VWS V14.01,2013-05-05 11:24:00,
2013-05-05 07:29:00,66.0,65.7,29.88,SE,135,0.0,1.0,99,0.00,,---,0.00,VWS V14.01,2013-05-05 11:29:00,
2013-05-05 07:34:00,66.0,65.7,29.89,ENE,67,1.0,6.0,99,0.00,,---,0.00,VWS V14.01,2013-05-05 11:34:00,
2013-05-05 07:39:00,66.0,65.7,29.89,SSE,157,0.0,5.0,99,0.00,,---,0.00,VWS V14.01,2013-05-05 11:39:00,
2013-05-05 07:44:00,66.0,64.5,29.88,SW,225,0.0,3.0,95,0.00,,---,0.00,VWS V14.01,2013-05-05 11:44:00,
2013-05-05 07:49:00,66.0,65.1,29.88,ENE,67,0.0,0.0,97,0.00,,---,0.00,VWS V14.01,2013-05-05 11:49:00,
2013-05-05 07:54:00,66.0,64.5,29.88,NE,45,0.0,0.0,95,0.00,,---,0.00,VWS V14.01,2013-05-05 11:54:00,
2013-05-05 07:59:00,66.0,64.5,29.88,East,90,1.0,1.0,95,0.00,,---,0.00,VWS V14.01,2013-05-05 11:59:00,
2013-05-05 08:04:00,67.0,65.8,29.89,South,180,0.0,1.0,96,0.00,,---,0.00,VWS V14.01,2013-05-05 12:04:00,
2013-05-05 08:09:00,67.0,65.8,29.89,SSE,157,2.0,5.0,96,0.00,,---,0.00,VWS V14.01,2013-05-05 12:09:00,
2013-05-05 08:14:00,67.0,65.5,29.89,ENE,67,0.0,3.0,95,0.00,,---,0.00,VWS V14.01,2013-05-05 12:14:00,
2013-05-05 08:19:00,67.0,64.6,29.89,NE,45,0.0,3.0,92,0.00,,---,0.00,VWS V14.01,2013-05-05 12:19:00,
2013-05-05 08:24:00,67.0,64.0,29.90,North,360,0.0,0.0,90,0.00,,---,0.00,VWS V14.01,2013-05-05 12:24:00,
2013-05-05 08:29:00,68.0,64.3,29.90,SSW,202,1.0,3.0,88,0.00,,---,0.00,VWS V14.01,2013-05-05 12:29:00,
2013-05-05 08:34:00,68.0,63.7,29.89,South,180,9.0,9.0,86,0.00,,---,0.00,VWS V14.01,2013-05-05 12:34:00,
2013-05-05 08:39:00,68.0,63.0,29.89,West,270,0.0,8.0,84,0.00,,---,0.00,VWS V14.01,2013-05-05 12:39:00,
2013-05-05 08:44:00,68.0,64.0,29.90,WSW,247,2.0,6.0,87,0.00,,---,0.00,VWS V14.01,2013-05-05 12:44:00,
2013-05-05 08:49:00,69.0,65.3,29.90,West,270,0.0,4.0,88,0.00,,---,0.00,VWS V14.01,2013-05-05 12:49:00,
2013-05-05 08:54:00,69.0,64.3,29.90,NE,45,0.0,4.0,85,0.00,,---,0.00,VWS V14.01,2013-05-05 12:54:00,
2013-05-05 08:59:00,69.0,64.3,29.90,ESE,112,0.0,3.0,85,0.00,,---,0.00,VWS V14.01,2013-05-05 12:59:00,
2013-05-05 09:04:00,69.0,63.6,29.90,NE,45,2.0,6.0,83,0.00,,---,0.00,VWS V14.01,2013-05-05 13:04:00,
2013-05-05 09:09:00,69.0,64.0,29.90,NE,45,3.0,3.0,84,0.00,,---,0.00,VWS V14.01,2013-05-05 13:09:00,
2013-05-05 09:14:00,68.0,60.9,29.91,SE,135,5.0,6.0,78,0.00,,---,0.00,VWS V14.01,2013-05-05 13:14:00,
2013-05-05 09:19:00,68.0,60.9,29.91,NE,45,1.0,4.0,78,0.00,,---,0.00,VWS V14.01,2013-05-05 13:19:00,
2013-05-05 09:24:00,67.0,59.6,29.93,North,360,2.0,4.0,77,0.00,,---,0.00,VWS V14.01,2013-05-05 13:24:00,
2013-05-05 09:29:00,67.0,58.5,29.93,WSW,247,3.0,8.0,74,0.00,,---,0.00,VWS V14.01,2013-05-05 13:29:00,
2013-05-05 09:34:00,67.0,56.5,29.93,NE,45,3.0,4.0,69,0.00,,---,0.00,VWS V14.01,2013-05-05 13:34:00,
2013-05-05 09:39:00,67.0,58.1,29.93,SE,135,0.0,2.0,73,0.00,,---,0.00,VWS V14.01,2013-05-05 13:39:00,
2013-05-05 09:44:00,67.0,54.9,29.93,East,90,1.0,5.0,65,0.00,,---,0.00,VWS V14.01,2013-05-05 13:44:00,
2013-05-05 09:49:00,67.0,55.7,29.93,SE,135,0.0,6.0,67,0.00,,---,0.00,VWS V14.01,2013-05-05 13:49:00,
2013-05-05 09:54:00,67.0,56.9,29.93,SE,135,2.0,2.0,70,0.00,,---,0.00,VWS V14.01,2013-05-05 13:54:00,
2013-05-05 09:59:00,67.0,55.7,29.93,ENE,67,2.0,6.0,67,0.00,,---,0.00,VWS V14.01,2013-05-05 13:59:00,
2013-05-05 10:04:00,68.0,57.9,29.93,WSW,247,1.0,6.0,70,0.00,,---,0.00,VWS V14.01,2013-05-05 14:04:00,
2013-05-05 10:09:00,68.0,56.2,29.93,ESE,112,0.0,5.0,66,0.00,,---,0.00,VWS V14.01,2013-05-05 14:09:00,
2013-05-05 10:14:00,69.0,54.5,29.92,West,270,5.0,7.0,60,0.00,,---,0.00,VWS V14.01,2013-05-05 14:14:00,
2013-05-05 10:19:00,70.0,52.1,29.92,SE,135,0.0,2.0,53,0.00,,---,0.00,VWS V14.01,2013-05-05 14:19:00,
2013-05-05 10:24:00,70.0,50.0,29.93,NE,45,1.0,2.0,49,0.00,,---,0.00,VWS V14.01,2013-05-05 14:24:00,
2013-05-05 10:29:00,71.0,51.5,29.93,North,360,1.0,8.0,50,0.00,,---,0.00,VWS V14.01,2013-05-05 14:29:00,
2013-05-05 10:34:00,72.0,55.0,29.93,NE,45,0.0,1.0,55,0.00,,---,0.00,VWS V14.01,2013-05-05 14:34:00,
2013-05-05 10:39:00,72.0,54.0,29.93,West,270,2.0,5.0,53,0.00,,---,0.00,VWS V14.01,2013-05-05 14:39:00,
2013-05-05 10:44:00,73.0,55.4,29.93,SE,135,0.0,9.0,54,0.00,,---,0.00,VWS V14.01,2013-05-05 14:44:00,
2013-05-05 10:49:00,74.0,54.2,29.93,SW,225,3.0,8.0,50,0.00,,---,0.00,VWS V14.01,2013-05-05 14:49:00,
2013-05-05 10:54:00,74.0,47.5,29.92,NE,45,2.0,3.0,39,0.00,,---,0.00,VWS V14.01,2013-05-05 14:54:00,
2013-05-05 10:59:00,74.0,50.1,29.92,North,360,3.0,6.0,43,0.00,,---,0.00,VWS V14.01,2013-05-05 14:59:00,
2013-05-05 11:04:00,74.0,48.2,29.92,SE,135,5.0,5.0,40,0.00,,---,0.00,VWS V14.01,2013-05-05 15:04:00,
2013-05-05 11:09:00,75.0,49.7,29.92,North,360,3.0,3.0,41,0.00,,---,0.00,VWS V14.01,2013-05-05 15:09:00,
2013-05-05 11:14:00,75.0,49.1,29.91,West,270,1.0,9.0,40,0.00,,---,0.00,VWS V14.01,2013-05-05 15:14:00,
2013-05-05 11:19:00,76.0,51.9,29.91,SW,225,7.0,7.0,43,0.00,,---,0.00,VWS V14.01,2013-05-05 15:19:00,
2013-05-05 11:24:00,76.0,50.0,29.91,West,270,1.0,5.0,40,0.00,,---,0.00,VWS V14.01,2013-05-05 15:24:00,
2013-05-05 11:29:00,76.0,47.9,29.91,NNE,22,1.0,4.0,37,0.00,,---,0.00,VWS V14.01,2013-05-05 15:29:00,
2013-05-05 11:34:00,77.0,50.2,29.91,West,270,4.0,6.0,39,0.00,,---,0.00,VWS V14.01,2013-05-05 15:34:00,
2013-05-05 11:39:00,77.0,51.5,29.91,WSW,247,2.0,4.0,41,0.00,,---,0.00,VWS V14.01,2013-05-05 15:39:00,
2013-05-05 11:44:00,77.0,48.8,29.91,NE,45,2.0,5.0,37,0.00,,---,0.00,VWS V14.01,2013-05-05 15:44:00,
2013-05-05 11:49:00,78.0,51.1,29.91,ESE,112,0.0,1.0,39,0.00,,---,0.00,VWS V14.01,2013-05-05 15:49:00,
2013-05-05 11:54:00,78.0,45.8,29.91,North,360,3.0,5.0,32,0.00,,---,0.00,VWS V14.01,2013-05-05 15:54:00,
2013-05-05 11:59:00,79.0,53.3,29.91,West,270,1.0,4.0,41,0.00,,---,0.00,VWS V14.01,2013-05-05 15:59:00,
2013-05-05 12:04:00,79.0,50.5,29.90,NW,315,0.0,4.0,37,0.00,,---,0.00,VWS V14.01,2013-05-05 16:04:00,
2013-05-05 12:09:00,79.0,48.3,29.90,SW,225,2.0,6.0,34,0.00,,---,0.00,VWS V14.01,2013-05-05 16:09:00,
2013-05-05 12:14:00,79.0,49.8,29.90,NE,45,0.0,1.0,36,0.00,,---,0.00,VWS V14.01,2013-05-05 16:14:00,
2013-05-05 12:19:00,79.0,46.7,29.90,SW,225,4.0,6.0,32,0.00,,---,0.00,VWS V14.01,2013-05-05 16:19:00,
2013-05-05 12:24:00,79.0,49.8,29.89,North,360,0.0,9.0,36,0.00,,---,0.00,VWS V14.01,2013-05-05 16:24:00,
2013-05-05 12:29:00,79.0,46.7,29.89,WSW,247,3.0,4.0,32,0.00,,---,0.00,VWS V14.01,2013-05-05 16:29:00,
2013-05-05 12:34:00,79.0,45.8,29.89,West,270,0.0,5.0,31,0.00,,---,0.00,VWS V14.01,2013-05-05 16:34:00,
2013-05-05 12:39:00,80.0,52.1,29.89,SW,225,6.0,9.0,38,0.00,,---,0.00,VWS V14.01,2013-05-05 16:39:00,
2013-05-05 12:44:00,79.0,48.3,29.88,SW,225,4.0,6.0,34,0.00,,---,0.00,VWS V14.01,2013-05-05 16:44:00,
2013-05-05 12:49:00,79.0,52.0,29.88,West,270,3.0,3.0,39,0.00,,---,0.00,VWS V14.01,2013-05-05 16:49:00,
2013-05-05 12:54:00,79.0,45.8,29.89,West,270,6.0,6.0,31,0.00,,---,0.00,VWS V14.01,2013-05-05 16:54:00,
2013-05-05 12:59:00,79.0,50.5,29.89,NW,315,1.0,3.0,37,0.00,,---,0.00,VWS V14.01,2013-05-05 16:59:00,
2013-05-05 13:04:00,80.0,50.7,29.88,SW,225,4.0,6.0,36,0.00,,---,0.00,VWS V14.01,2013-05-05 17:04:00,
2013-05-05 13:09:00,79.0,49.8,29.88,ENE,67,1.0,4.0,36,0.00,,---,0.00,VWS V14.01,2013-05-05 17:09:00,
2013-05-05 13:14:00,79.0,51.2,29.88,SW,225,2.0,5.0,38,0.00,,---,0.00,VWS V14.01,2013-05-05 17:14:00,
2013-05-05 13:19:00,79.0,50.5,29.88,West,270,1.0,2.0,37,0.00,,---,0.00,VWS V14.01,2013-05-05 17:19:00,
2013-05-05 13:24:00,80.0,51.4,29.88,SSW,202,2.0,2.0,37,0.00,,---,0.00,VWS V14.01,2013-05-05 17:24:00,
2013-05-05 13:29:00,80.0,52.1,29.88,West,270,0.0,5.0,38,0.00,,---,0.00,VWS V14.01,2013-05-05 17:29:00,
2013-05-05 13:34:00,80.0,48.3,29.88,North,360,1.0,2.0,33,0.00,,---,0.00,VWS V14.01,2013-05-05 17:34:00,
2013-05-05 13:39:00,80.0,52.1,29.88,WSW,247,0.0,1.0,38,0.00,,---,0.00,VWS V14.01,2013-05-05 17:39:00,
2013-05-05 13:44:00,81.0,47.5,29.87,WSW,247,6.0,8.0,31,0.00,,---,0.00,VWS V14.01,2013-05-05 17:44:00,
2013-05-05 13:49:00,81.0,51.6,29.87,SW,225,3.0,10.0,36,0.00,,---,0.00,VWS V14.01,2013-05-05 17:49:00,
2013-05-05 13:54:00,81.0,53.0,29.87,West,270,3.0,7.0,38,0.00,,---,0.00,VWS V14.01,2013-05-05 17:54:00,
2013-05-05 13:59:00,81.0,49.2,29.87,East,90,0.0,3.0,33,0.00,,---,0.00,VWS V14.01,2013-05-05 17:59:00,
2013-05-05 14:04:00,82.0,50.1,29.87,SSW,202,4.0,4.0,33,0.00,,---,0.00,VWS V14.01,2013-05-05 18:04:00,
2013-05-05 14:09:00,81.0,49.2,29.87,SSW,202,0.0,1.0,33,0.00,,---,0.00,VWS V14.01,2013-05-05 18:09:00,
2013-05-05 14:14:00,82.0,49.3,29.86,South,180,3.0,7.0,32,0.00,,---,0.00,VWS V14.01,2013-05-05 18:14:00,
2013-05-05 14:19:00,82.0,50.1,29.86,WSW,247,5.0,6.0,33,0.00,,---,0.00,VWS V14.01,2013-05-05 18:19:00,
2013-05-05 14:24:00,82.0,48.4,29.86,WSW,247,1.0,6.0,31,0.00,,---,0.00,VWS V14.01,2013-05-05 18:24:00,
2013-05-05 14:29:00,82.0,52.4,29.86,SW,225,2.0,8.0,36,0.00,,---,0.00,VWS V14.01,2013-05-05 18:29:00,
2013-05-05 14:34:00,82.0,46.6,29.85,ESE,112,3.0,3.0,29,0.00,,---,0.00,VWS V14.01,2013-05-05 18:34:00,
2013-05-05 14:39:00,83.0,51.0,29.85,WSW,247,5.0,10.0,33,0.00,,---,0.00,VWS V14.01,2013-05-05 18:39:00,
2013-05-05 14:44:00,82.0,50.1,29.85,SW,225,0.0,4.0,33,0.00,,---,0.00,VWS V14.01,2013-05-05 18:44:00,
2013-05-05 14:49:00,83.0,47.5,29.85,East,90,2.0,3.0,29,0.00,,---,0.00,VWS V14.01,2013-05-05 18:49:00,
2013-05-05 14:54:00,83.0,42.5,29.85,NE,45,0.0,6.0,24,0.00,,---,0.00,VWS V14.01,2013-05-05 18:54:00,
2013-05-05 14:59:00,83.0,47.5,29.85,SW,225,1.0,7.0,29,0.00,,---,0.00,VWS V14.01,2013-05-05 18:59:00,
2013-05-05 15:04:00,83.0,48.4,29.85,WSW,247,6.0,6.0,30,0.00,,---,0.00,VWS V14.01,2013-05-05 19:04:00,
2013-05-05 15:09:00,83.0,47.5,29.85,SSW,202,3.0,7.0,29,0.00,,---,0.00,VWS V14.01,2013-05-05 19:09:00,
2013-05-05 15:14:00,83.0,46.6,29.85,SW,225,6.0,6.0,28,0.00,,---,0.00,VWS V14.01,2013-05-05 19:14:00,
2013-05-05 15:19:00,84.0,44.4,29.85,South,180,9.0,9.0,25,0.00,,---,0.00,VWS V14.01,2013-05-05 19:19:00,
2013-05-05 15:24:00,84.0,51.0,29.84,WSW,247,2.0,4.0,32,0.00,,---,0.00,VWS V14.01,2013-05-05 19:24:00,
2013-05-05 15:29:00,84.0,46.5,29.84,WSW,247,5.0,9.0,27,0.00,,---,0.00,VWS V14.01,2013-05-05 19:29:00,
2013-05-05 15:34:00,83.0,50.1,29.84,WSW,247,0.0,6.0,32,0.00,,---,0.00,VWS V14.01,2013-05-05 19:34:00,
2013-05-05 15:39:00,84.0,48.4,29.84,South,180,0.0,3.0,29,0.00,,---,0.00,VWS V14.01,2013-05-05 19:39:00,
2013-05-05 15:44:00,84.0,48.4,29.84,ENE,67,0.0,3.0,29,0.00,,---,0.00,VWS V14.01,2013-05-05 19:44:00,
2013-05-05 15:49:00,84.0,45.5,29.84,SW,225,2.0,6.0,26,0.00,,---,0.00,VWS V14.01,2013-05-05 19:49:00,
2013-05-05 15:54:00,84.0,51.8,29.83,West,270,1.0,2.0,33,0.00,,---,0.00,VWS V14.01,2013-05-05 19:54:00,
2013-05-05 15:59:00,85.0,51.9,29.83,NNW,337,0.0,1.0,32,0.00,,---,0.00,VWS V14.01,2013-05-05 19:59:00,
2013-05-05 16:04:00,85.0,47.3,29.83,ESE,112,1.0,3.0,27,0.00,,---,0.00,VWS V14.01,2013-05-05 20:04:00,
2013-05-05 16:09:00,85.0,50.1,29.83,East,90,0.0,3.0,30,0.00,,---,0.00,VWS V14.01,2013-05-05 20:09:00,
2013-05-05 16:14:00,85.0,51.0,29.83,West,270,5.0,5.0,31,0.00,,---,0.00,VWS V14.01,2013-05-05 20:14:00,
2013-05-05 16:20:00,86.0,51.9,29.82,SW,225,2.0,5.0,31,0.00,,---,0.00,VWS V14.01,2013-05-05 20:20:00,
2013-05-05 16:25:00,85.0,48.3,29.82,West,270,0.0,6.0,28,0.00,,---,0.00,VWS V14.01,2013-05-05 20:25:00,
2013-05-05 16:30:00,85.0,47.3,29.83,WSW,247,6.0,7.0,27,0.00,,---,0.00,VWS V14.01,2013-05-05 20:30:00,
2013-05-05 16:35:00,85.0,44.2,29.83,WSW,247,3.0,7.0,24,0.00,,---,0.00,VWS V14.01,2013-05-05 20:35:00,
2013-05-05 16:40:00,85.0,49.2,29.83,WSW,247,7.0,7.0,29,0.00,,---,0.00,VWS V14.01,2013-05-05 20:40:00,
2013-05-05 16:45:00,85.0,47.3,29.83,West,270,3.0,6.0,27,0.00,,---,0.00,VWS V14.01,2013-05-05 20:45:00,
2013-05-05 16:50:00,85.0,49.2,29.83,West,270,3.0,9.0,29,0.00,,---,0.00,VWS V14.01,2013-05-05 20:50:00,
2013-05-05 16:55:00,84.0,50.2,29.83,North,360,1.0,1.0,31,0.00,,---,0.00,VWS V14.01,2013-05-05 20:55:00,
2013-05-05 17:00:00,85.0,49.2,29.83,ENE,67,0.0,4.0,29,0.00,,---,0.00,VWS V14.01,2013-05-05 21:00:00,
2013-05-05 17:05:00,85.0,50.1,29.83,West,270,2.0,8.0,30,0.00,,---,0.00,VWS V14.01,2013-05-05 21:05:00,
2013-05-05 17:10:00,85.0,49.2,29.83,SW,225,3.0,7.0,29,0.00,,---,0.00,VWS V14.01,2013-05-05 21:10:00,
2013-05-05 17:15:00,84.0,51.0,29.83,West,270,1.0,3.0,32,0.00,,---,0.00,VWS V14.01,2013-05-05 21:15:00,
2013-05-05 17:20:00,84.0,47.4,29.83,West,270,1.0,6.0,28,0.00,,---,0.00,VWS V14.01,2013-05-05 21:20:00,
2013-05-05 17:25:00,84.0,49.3,29.83,West,270,2.0,7.0,30,0.00,,---,0.00,VWS V14.01,2013-05-05 21:25:00,
2013-05-05 17:30:00,84.0,48.4,29.83,WSW,247,3.0,6.0,29,0.00,,---,0.00,VWS V14.01,2013-05-05 21:30:00,
2013-05-05 17:35:00,83.0,49.3,29.83,South,180,0.0,4.0,31,0.00,,---,0.00,VWS V14.01,2013-05-05 21:35:00,
2013-05-05 17:40:00,83.0,47.5,29.84,WSW,247,3.0,3.0,29,0.00,,---,0.00,VWS V14.01,2013-05-05 21:40:00,
2013-05-05 17:45:00,83.0,49.3,29.84,SW,225,0.0,7.0,31,0.00,,---,0.00,VWS V14.01,2013-05-05 21:45:00,
2013-05-05 17:50:00,83.0,49.3,29.84,SW,225,5.0,6.0,31,0.00,,---,0.00,VWS V14.01,2013-05-05 21:50:00,
2013-05-05 17:55:00,82.0,48.4,29.84,SW,225,3.0,7.0,31,0.00,,---,0.00,VWS V14.01,2013-05-05 21:55:00,
2013-05-05 18:00:00,82.0,47.5,29.85,East,90,0.0,2.0,30,0.00,,---,0.00,VWS V14.01,2013-05-05 22:00:00,
2013-05-05 18:05:00,82.0,49.3,29.85,East,90,0.0,2.0,32,0.00,,---,0.00,VWS V14.01,2013-05-05 22:05:00,
2013-05-05 18:10:00,82.0,47.5,29.85,SW,225,0.0,5.0,30,0.00,,---,0.00,VWS V14.01,2013-05-05 22:10:00,
2013-05-05 18:15:00,81.0,48.4,29.85,SE,135,0.0,1.0,32,0.00,,---,0.00,VWS V14.01,2013-05-05 22:15:00,
2013-05-05 18:20:00,81.0,47.5,29.85,WSW,247,0.0,6.0,31,0.00,,---,0.00,VWS V14.01,2013-05-05 22:20:00,
2013-05-05 18:25:00,81.0,50.8,29.85,SW,225,2.0,3.0,35,0.00,,---,0.00,VWS V14.01,2013-05-05 22:25:00,
2013-05-05 18:30:00,80.0,49.1,29.86,WSW,247,0.0,2.0,34,0.00,,---,0.00,VWS V14.01,2013-05-05 22:30:00,
2013-05-05 18:35:00,79.0,49.0,29.86,West,270,0.0,4.0,35,0.00,,---,0.00,VWS V14.01,2013-05-05 22:35:00,
2013-05-05 18:40:00,78.0,51.1,29.86,NE,45,0.0,1.0,39,0.00,,---,0.00,VWS V14.01,2013-05-05 22:40:00,
2013-05-05 18:45:00,77.0,50.2,29.86,West,270,0.0,3.0,39,0.00,,---,0.00,VWS V14.01,2013-05-05 22:45:00,
2013-05-05 18:50:00,77.0,50.2,29.87,WSW,247,4.0,4.0,39,0.00,,---,0.00,VWS V14.01,2013-05-05 22:50:00,
2013-05-05 18:55:00,76.0,48.6,29.87,West,270,6.0,7.0,38,0.00,,---,0.00,VWS V14.01,2013-05-05 22:55:00,
2013-05-05 19:00:00,76.0,47.9,29.87,West,270,0.0,0.0,37,0.00,,---,0.00,VWS V14.01,2013-05-05 23:00:00,
2013-05-05 19:05:00,75.0,48.4,29.87,West,270,0.0,0.0,39,0.00,,---,0.00,VWS V14.01,2013-05-05 23:05:00,
2013-05-05 19:10:00,75.0,49.7,29.88,South,180,0.0,0.0,41,0.00,,---,0.00,VWS V14.01,2013-05-05 23:10:00,
2013-05-05 19:15:00,74.0,51.3,29.88,SSW,202,0.0,0.0,45,0.00,,---,0.00,VWS V14.01,2013-05-05 23:15:00,
2013-05-05 19:20:00,74.0,46.8,29.89,West,270,0.0,3.0,38,0.00,,---,0.00,VWS V14.01,2013-05-05 23:20:00,
2013-05-05 19:25:00,73.0,50.4,29.89,SE,135,0.0,0.0,45,0.00,,---,0.00,VWS V14.01,2013-05-05 23:25:00,
2013-05-05 19:30:00,73.0,50.4,29.89,West,270,0.0,2.0,45,0.00,,---,0.00,VWS V14.01,2013-05-05 23:30:00,
2013-05-05 19:35:00,73.0,53.3,29.89,West,270,0.0,1.0,50,0.00,,---,0.00,VWS V14.01,2013-05-05 23:35:00,
2013-05-05 19:40:00,72.0,47.0,29.89,West,270,0.0,0.0,41,0.00,,---,0.00,VWS V14.01,2013-05-05 23:40:00,
2013-05-05 19:45:00,72.0,55.0,29.89,West,270,0.0,0.0,55,0.00,,---,0.00,VWS V14.01,2013-05-05 23:45:00,
2013-05-05 19:50:00,71.0,51.5,29.90,West,270,0.0,0.0,50,0.00,,---,0.00,VWS V14.01,2013-05-05 23:50:00,
2013-05-05 19:55:00,71.0,54.5,29.90,West,270,0.0,0.0,56,0.00,,---,0.00,VWS V14.01,2013-05-05 23:55:00,
2013-05-05 20:00:00,70.0,50.5,29.91,WSW,247,0.0,0.0,50,0.00,,---,0.00,VWS V14.01,2013-05-06 00:00:00,
2013-05-05 20:05:00,70.0,51.6,29.91,SW,225,0.0,0.0,52,0.00,,---,0.00,VWS V14.01,2013-05-06 00:05:00,
2013-05-05 20:10:00,69.0,54.1,29.91,SW,225,0.0,0.0,59,0.00,,---,0.00,VWS V14.01,2013-05-06 00:10:00,
2013-05-05 20:15:00,69.0,53.2,29.91,SW,225,0.0,0.0,57,0.00,,---,0.00,VWS V14.01,2013-05-06 00:15:00,
2013-05-05 20:20:00,68.0,51.2,29.92,SW,225,0.0,0.0,55,0.00,,---,0.00,VWS V14.01,2013-05-06 00:20:00,
2013-05-05 20:25:00,67.0,52.7,29.92,SW,225,0.0,0.0,60,0.00,,---,0.00,VWS V14.01,2013-05-06 00:25:00,
2013-05-05 20:30:00,67.0,52.2,29.93,SW,225,0.0,0.0,59,0.00,,---,0.00,VWS V14.01,2013-05-06 00:30:00,
2013-05-05 20:35:00,66.0,51.7,29.93,SW,225,0.0,0.0,60,0.00,,---,0.00,VWS V14.01,2013-05-06 00:35:00,
2013-05-05 20:40:00,66.0,53.5,29.93,SW,225,0.0,0.0,64,0.00,,---,0.00,VWS V14.01,2013-05-06 00:40:00,
2013-05-05 20:45:00,65.0,53.0,29.93,SW,225,0.0,0.0,65,0.00,,---,0.00,VWS V14.01,2013-05-06 00:45:00,
2013-05-05 20:50:00,64.0,53.6,29.95,SW,225,0.0,0.0,69,0.00,,---,0.00,VWS V14.01,2013-05-06 00:50:00,
2013-05-05 20:55:00,64.0,54.8,29.95,SW,225,0.0,0.0,72,0.00,,---,0.00,VWS V14.01,2013-05-06 00:55:00,
2013-05-05 21:00:00,63.0,54.6,29.95,SW,225,0.0,0.0,74,0.00,,---,0.00,VWS V14.01,2013-05-06 01:00:00,
2013-05-05 21:05:00,62.0,54.0,29.95,SW,225,0.0,0.0,75,0.00,,---,0.00,VWS V14.01,2013-05-06 01:05:00,
2013-05-05 21:10:00,62.0,55.1,29.95,SW,225,0.0,0.0,78,0.00,,---,0.00,VWS V14.01,2013-05-06 01:10:00,
2013-05-05 21:15:00,61.0,54.1,29.95,SW,225,0.0,0.0,78,0.00,,---,0.00,VWS V14.01,2013-05-06 01:15:00,
2013-05-05 21:20:00,61.0,54.5,29.97,SW,225,0.0,0.0,79,0.00,,---,0.00,VWS V14.01,2013-05-06 01:20:00,
2013-05-05 21:25:00,60.0,53.8,29.97,SW,225,0.0,0.0,80,0.00,,---,0.00,VWS V14.01,2013-05-06 01:25:00,
2013-05-05 21:30:00,60.0,53.5,29.97,SW,225,0.0,0.0,79,0.00,,---,0.00,VWS V14.01,2013-05-06 01:30:00,
2013-05-05 21:35:00,60.0,52.8,29.97,SW,225,0.0,0.0,77,0.00,,---,0.00,VWS V14.01,2013-05-06 01:35:00,
2013-05-05 21:40:00,60.0,52.1,29.97,SW,225,0.0,0.0,75,0.00,,---,0.00,VWS V14.01,2013-05-06 01:40:00,
2013-05-05 21:45:00,60.0,51.7,29.97,SW,225,0.0,0.0,74,0.00,,---,0.00,VWS V14.01,2013-05-06 01:45:00,
2013-05-05 21:50:00,60.0,51.7,29.98,SW,225,0.0,0.0,74,0.00,,---,0.00,VWS V14.01,2013-05-06 01:50:00,
2013-05-05 21:55:00,60.0,52.1,29.98,SW,225,0.0,0.0,75,0.00,,---,0.00,VWS V14.01,2013-05-06 01:55:00,
2013-05-05 22:00:00,60.0,51.7,29.98,SW,225,0.0,0.0,74,0.00,,---,0.00,VWS V14.01,2013-05-06 02:00:00,
2013-05-05 22:05:00,60.0,52.1,29.98,SW,225,0.0,0.0,75,0.00,,---,0.00,VWS V14.01,2013-05-06 02:05:00,
2013-05-05 22:10:00,60.0,52.1,29.98,SW,225,0.0,0.0,75,0.00,,---,0.00,VWS V14.01,2013-05-06 02:10:00,
2013-05-05 22:15:00,60.0,53.1,29.98,SW,225,0.0,0.0,78,0.00,,---,0.00,VWS V14.01,2013-05-06 02:15:00,
2013-05-05 22:20:00,60.0,53.5,29.98,SW,225,0.0,0.0,79,0.00,,---,0.00,VWS V14.01,2013-05-06 02:20:00,
2013-05-05 22:25:00,59.0,52.5,29.98,SW,225,0.0,0.0,79,0.00,,---,0.00,VWS V14.01,2013-05-06 02:25:00,
2013-05-05 22:30:00,59.0,52.5,29.99,SW,225,0.0,0.0,79,0.00,,---,0.00,VWS V14.01,2013-05-06 02:30:00,
2013-05-05 22:35:00,59.0,52.8,29.99,SW,225,0.0,0.0,80,0.00,,---,0.00,VWS V14.01,2013-05-06 02:35:00,
2013-05-05 22:40:00,59.0,52.8,29.99,SW,225,0.0,0.0,80,0.00,,---,0.00,VWS V14.01,2013-05-06 02:40:00,
2013-05-05 22:45:00,59.0,53.2,29.99,SW,225,0.0,0.0,81,0.00,,---,0.00,VWS V14.01,2013-05-06 02:45:00,
2013-05-05 22:50:00,59.0,53.2,30.00,SW,225,0.0,0.0,81,0.00,,---,0.00,VWS V14.01,2013-05-06 02:50:00,
2013-05-05 22:55:00,59.0,52.8,30.00,SW,225,0.0,0.0,80,0.00,,---,0.00,VWS V14.01,2013-05-06 02:55:00,
2013-05-05 23:00:00,60.0,53.5,29.99,SW,225,0.0,0.0,79,0.00,,---,0.00,VWS V14.01,2013-05-06 03:00:00,
2013-05-05 23:05:00,59.0,52.8,29.99,SW,225,0.0,2.0,80,0.00,,---,0.00,VWS V14.01,2013-05-06 03:05:00,
2013-05-05 23:10:00,60.0,53.1,29.99,SW,225,1.0,3.0,78,0.00,,---,0.00,VWS V14.01,2013-05-06 03:10:00,
2013-05-05 23:15:00,60.0,52.1,29.99,SW,225,0.0,1.0,75,0.00,,---,0.00,VWS V14.01,2013-05-06 03:15:00,
2013-05-05 23:20:00,61.0,52.3,29.99,West,270,0.0,0.0,73,0.00,,---,0.00,VWS V14.01,2013-05-06 03:20:00,
2013-05-05 23:25:00,61.0,51.9,29.99,WSW,247,1.0,2.0,72,0.00,,---,0.00,VWS V14.01,2013-05-06 03:25:00,
2013-05-05 23:30:00,62.0,52.1,29.99,WSW,247,0.0,0.0,70,0.00,,---,0.00,VWS V14.01,2013-05-06 03:30:00,
2013-05-05 23:35:00,62.0,52.9,29.99,WSW,247,0.0,1.0,72,0.00,,---,0.00,VWS V14.01,2013-05-06 03:35:00,
2013-05-05 23:40:00,62.0,52.9,29.99,WSW,247,0.0,0.0,72,0.00,,---,0.00,VWS V14.01,2013-05-06 03:40:00,
2013-05-05 23:45:00,61.0,52.7,29.99,West,270,0.0,0.0,74,0.00,,---,0.00,VWS V14.01,2013-05-06 03:45:00,
2013-05-05 23:50:00,61.0,53.0,30.00,West,270,0.0,0.0,75,0.00,,---,0.00,VWS V14.01,2013-05-06 03:50:00,
2013-05-05 23:55:00,60.0,51.7,30.00,West,270,0.0,0.0,74,0.00,,---,0.00,VWS V14.01,2013-05-06 03:55:00,